Time;durP1;ratioP1;P1;durP2;ratioP2;P2;SDS_P1;SDS_P2;PMS_P1;PMS_P2;Temp;Humidity;BMP_temperature;BMP_pressure;BME280_temperature;BME280_humidity;BME280_pressure;Samples;Min_cycle;Max_cycle;Signal;HPM_P1;HPM_P2
2023/08/06 00:00:17;;;;;;;8.63;7.77;;;;;;;16.22;100.00;155529.16;5012312;28;20531;-81
2023/08/06 00:02:44;;;;;;;10.17;8.53;;;;;;;16.25;100.00;155536.97;5023371;28;20473;-81
2023/08/06 00:05:11;;;;;;;10.40;9.20;;;;;;;16.22;100.00;155529.16;5007042;28;20460;-81
2023/08/06 00:07:38;;;;;;;9.87;8.87;;;;;;;16.20;100.00;155522.66;5006105;28;20444;-81
2023/08/06 00:10:07;;;;;;;10.97;9.77;;;;;;;16.12;100.00;155501.88;4989161;28;20460;-81
2023/08/06 00:12:33;;;;;;;11.77;10.27;;;;;;;16.05;100.00;155483.63;4990102;28;20461;-81
2023/08/06 00:15:00;;;;;;;10.90;9.80;;;;;;;16.00;100.00;155470.63;4990831;28;20464;-81
2023/08/06 00:17:26;;;;;;;11.03;9.93;;;;;;;15.98;100.00;155465.44;5008585;28;20440;-81
2023/08/06 00:19:53;;;;;;;12.40;10.10;;;;;;;15.96;100.00;155461.56;4988593;28;20701;-80
2023/08/06 00:22:19;;;;;;;12.23;10.93;;;;;;;15.94;100.00;155455.06;5004031;28;20484;-81
2023/08/06 00:24:46;;;;;;;12.47;11.17;;;;;;;15.92;100.00;155449.81;5022716;28;20461;-81
2023/08/06 00:27:14;;;;;;;14.90;13.03;;;;;;;15.91;100.00;155447.25;5007615;28;20932;-81
2023/08/06 00:29:40;;;;;;;11.13;10.00;;;;;;;15.84;100.00;155431.63;5008375;28;20479;-81
2023/08/06 00:32:07;;;;;;;11.97;10.27;;;;;;;15.73;100.00;155403.03;4989593;28;20690;-81
2023/08/06 00:34:34;;;;;;;14.00;12.50;;;;;;;15.73;100.00;155403.03;5008321;28;20463;-81
2023/08/06 00:37:00;;;;;;;15.57;13.67;;;;;;;15.74;100.00;155405.66;5006343;28;20475;-81
2023/08/06 00:39:27;;;;;;;16.87;13.80;;;;;;;15.63;100.00;155377.03;5007814;28;20928;-81
2023/08/06 00:41:54;;;;;;;14.67;12.93;;;;;;;15.54;100.00;155352.38;5022073;28;20477;-81
2023/08/06 00:44:22;;;;;;;15.50;13.40;;;;;;;15.53;100.00;155351.06;5022276;28;20994;-81
2023/08/06 00:46:49;;;;;;;17.60;13.47;;;;;;;15.51;100.00;155345.88;5021387;28;20548;-81
2023/08/06 00:49:15;;;;;;;15.90;14.27;;;;;;;15.50;100.00;155343.25;5007933;28;20456;-80
2023/08/06 00:51:43;;;;;;;16.50;13.97;;;;;;;15.51;100.00;155344.56;5006950;28;20445;-81
2023/08/06 00:54:10;;;;;;;13.47;12.10;;;;;;;15.46;100.00;155332.81;4989623;28;20449;-81
2023/08/06 00:57:01;;;;;;;10.47;9.07;;;;;;;15.45;100.00;155330.19;5021137;28;20967;-81
2023/08/06 00:59:29;;;;;;;9.20;8.30;;;;;;;15.40;100.00;155317.22;4989758;28;20963;-80
2023/08/06 01:01:56;;;;;;;6.40;5.80;;;;;;;15.35;100.00;155304.22;5018489;28;20909;-80
2023/08/06 01:04:23;;;;;;;6.30;5.70;;;;;;;15.32;100.00;155295.09;5004932;28;20944;-81
2023/08/06 01:06:56;;;;;;;5.30;4.80;;;;;;;15.28;100.00;155286.00;5007596;28;20647;-81
2023/08/06 01:09:38;;;;;;;5.60;5.10;;;;;;;15.28;100.00;155286.00;5020478;28;20886;-81
2023/08/06 01:12:10;;;;;;;4.80;4.33;;;;;;;15.27;100.00;155283.44;5006229;28;20452;-81
2023/08/06 01:14:58;;;;;;;5.17;4.40;;;;;;;15.20;100.00;155265.19;4989240;28;20453;-81
2023/08/06 01:17:26;;;;;;;4.80;4.30;;;;;;;15.16;100.00;155254.81;5021967;28;20456;-81
2023/08/06 01:19:53;;;;;;;6.03;5.50;;;;;;;15.11;100.00;155241.84;5002451;28;20453;-81
2023/08/06 01:22:21;;;;;;;4.67;4.17;;;;;;;15.12;100.00;155244.41;4988636;28;20481;-80
2023/08/06 01:24:50;;;;;;;4.43;4.03;;;;;;;15.11;100.00;155241.84;5021485;28;20452;-81
2023/08/06 01:27:25;;;;;;;5.00;4.47;;;;;;;15.06;100.00;155228.84;4987829;28;20467;-80
2023/08/06 01:29:58;;;;;;;4.80;4.40;;;;;;;15.03;100.00;155222.34;5017811;28;20452;-80
2023/08/06 01:32:26;;;;;;;6.80;5.40;;;;;;;15.03;100.00;155222.34;4988170;28;21066;-80
2023/08/06 01:34:53;;;;;;;7.67;5.20;;;;;;;15.07;100.00;155231.41;4991435;28;20456;-81
2023/08/06 01:37:21;;;;;;;5.37;4.87;;;;;;;15.08;100.00;155234.03;4987648;28;20829;-80
2023/08/06 01:39:48;;;;;;;5.00;4.50;;;;;;;15.10;100.00;155239.22;5005989;28;20787;-81
2023/08/06 01:42:14;;;;;;;4.60;4.20;;;;;;;15.09;100.00;155236.66;5021575;28;20487;-80
2023/08/06 01:44:41;;;;;;;5.00;4.30;;;;;;;15.07;100.00;155232.72;4988428;28;20826;-80
2023/08/06 01:47:07;;;;;;;5.23;4.73;;;;;;;15.12;100.00;155244.41;4987119;28;20479;-81
2023/08/06 01:49:34;;;;;;;4.40;3.93;;;;;;;15.04;100.00;155224.94;5020676;28;20976;-80
2023/08/06 01:52:01;;;;;;;6.00;4.47;;;;;;;15.06;100.00;155230.09;5005820;28;20449;-81
2023/08/06 01:54:29;;;;;;;6.93;4.67;;;;;;;15.05;100.00;155227.53;5021146;28;21039;-81
2023/08/06 01:56:55;;;;;;;5.03;4.53;;;;;;;15.00;100.00;155214.56;5019917;28;20551;-81
2023/08/06 01:59:22;;;;;;;4.57;4.17;;;;;;;14.97;100.00;155206.75;4988843;28;20986;-81
2023/08/06 02:01:48;;;;;;;5.60;5.10;;;;;;;14.95;100.00;155200.25;4989349;28;20445;-81
2023/08/06 02:04:15;;;;;;;4.10;3.70;;;;;;;14.90;100.00;155187.28;5021246;28;20845;-80
2023/08/06 02:06:41;;;;;;;5.40;4.90;;;;;;;14.90;100.00;155188.56;4990183;28;20576;-81
2023/08/06 02:09:08;;;;;;;5.57;4.70;;;;;;;14.86;100.00;155176.84;5020393;28;20453;-80
2023/08/06 02:11:37;;;;;;;5.10;4.70;;;;;;;14.79;100.00;155158.69;5021693;28;21085;-81
2023/08/06 02:14:04;;;;;;;4.20;3.80;;;;;;;14.74;100.00;155145.69;4988240;28;20429;-80
2023/08/06 02:16:30;;;;;;;5.43;4.30;;;;;;;14.73;100.00;155143.09;5006852;28;20523;-80
2023/08/06 02:18:57;;;;;;;4.90;4.43;;;;;;;14.71;100.00;155137.91;5003410;28;20452;-81
2023/08/06 02:21:23;;;;;;;5.20;4.70;;;;;;;14.64;100.00;155122.28;5005938;28;20448;-80
2023/08/06 02:23:50;;;;;;;5.10;4.60;;;;;;;14.56;100.00;155101.50;4988455;28;20472;-81
2023/08/06 02:26:16;;;;;;;5.33;4.70;;;;;;;14.52;100.00;155091.16;4972453;28;20451;-81
2023/08/06 02:28:44;;;;;;;4.70;4.17;;;;;;;14.49;100.00;155083.34;5018890;28;20816;-81
2023/08/06 02:31:13;;;;;;;5.20;4.70;;;;;;;14.49;100.00;155082.03;4988011;28;20480;-80
2023/08/06 02:33:39;;;;;;;5.83;4.00;;;;;;;14.47;100.00;155078.16;5020239;28;20838;-81
2023/08/06 02:36:06;;;;;;;4.40;4.00;;;;;;;14.46;100.00;155074.25;5020738;28;20872;-80
2023/08/06 02:38:33;;;;;;;5.67;3.90;;;;;;;14.40;100.00;155059.94;4986926;28;20461;-80
2023/08/06 02:41:00;;;;;;;4.40;4.00;;;;;;;14.35;100.00;155046.97;4988205;28;20445;-80
2023/08/06 02:43:26;;;;;;;7.43;4.00;;;;;;;14.33;100.00;155041.78;4987326;28;20881;-81
2023/08/06 02:45:57;;;;;;;5.97;3.50;;;;;;;14.28;100.00;155028.75;5002850;28;20465;-81
2023/08/06 02:48:24;;;;;;;4.77;4.00;;;;;;;14.31;100.00;155035.25;4987707;28;20447;-80
2023/08/06 02:50:50;;;;;;;4.67;3.70;;;;;;;14.30;100.00;155033.94;4987646;28;20471;-80
2023/08/06 02:53:17;;;;;;;4.43;3.70;;;;;;;14.30;100.00;155033.94;4987431;28;20448;-81
2023/08/06 02:55:47;;;;;;;4.53;3.40;;;;;;;14.23;100.00;155015.78;5001973;28;20550;-80
2023/08/06 02:58:14;;;;;;;4.63;3.20;;;;;;;14.20;100.00;155006.66;4985517;28;20453;-80
2023/08/06 03:00:46;;;;;;;3.40;3.10;;;;;;;14.18;100.00;155002.78;4989061;28;20515;-80
2023/08/06 03:03:16;;;;;;;4.20;3.80;;;;;;;14.16;100.00;154997.59;5005226;28;20690;-80
2023/08/06 03:05:52;;;;;;;5.20;3.17;;;;;;;14.14;100.00;154991.13;4985704;28;20464;-80
2023/08/06 03:08:24;;;;;;;5.07;3.60;;;;;;;14.14;100.00;154991.13;4988217;28;20459;-80
2023/08/06 03:10:52;;;;;;;4.20;3.20;;;;;;;14.12;100.00;154985.88;5002231;28;20456;-80
2023/08/06 03:13:20;;;;;;;5.10;3.40;;;;;;;14.13;100.00;154989.81;4988553;28;20456;-80
2023/08/06 03:15:53;;;;;;;3.47;3.17;;;;;;;14.16;100.00;154997.59;5005665;28;20461;-80
2023/08/06 03:18:21;;;;;;;3.90;3.43;;;;;;;14.12;100.00;154985.88;4987126;28;20511;-80
2023/08/06 03:20:47;;;;;;;3.80;3.00;;;;;;;14.12;100.00;154987.19;4990264;28;20496;-79
2023/08/06 03:23:14;;;;;;;3.03;2.63;;;;;;;14.11;100.00;154984.59;4988078;28;20479;-80
2023/08/06 03:25:41;;;;;;;4.13;3.17;;;;;;;14.11;100.00;154984.59;5003864;28;20547;-80
2023/08/06 03:28:08;;;;;;;4.53;3.07;;;;;;;14.16;100.00;154996.31;4989011;28;20687;-79
2023/08/06 03:30:35;;;;;;;3.30;2.57;;;;;;;14.15;100.00;154993.69;5007687;28;20471;-80
2023/08/06 03:33:02;;;;;;;3.90;2.70;;;;;;;14.17;100.00;155000.19;5008668;28;21013;-80
2023/08/06 03:35:30;;;;;;;2.70;2.40;;;;;;;14.17;100.00;155000.19;4991471;28;20464;-80
2023/08/06 03:37:58;;;;;;;2.90;2.43;;;;;;;14.20;100.00;155007.97;4989584;28;20473;-79
2023/08/06 03:40:24;;;;;;;3.67;3.20;;;;;;;14.13;100.00;154989.81;5008887;28;20479;-79
2023/08/06 03:42:51;;;;;;;3.50;2.60;;;;;;;14.14;100.00;154992.38;5009262;28;20472;-79
2023/08/06 03:45:18;;;;;;;4.23;2.80;;;;;;;14.18;100.00;155002.78;4991361;28;20452;-79
2023/08/06 03:47:44;;;;;;;3.80;2.73;;;;;;;14.18;100.00;155001.50;4989608;28;20448;-79
2023/08/06 03:50:11;;;;;;;3.50;3.00;;;;;;;14.18;100.00;155001.50;4990818;28;20463;-79
2023/08/06 03:52:39;;;;;;;3.00;2.30;;;;;;;14.15;100.00;154993.69;4991520;28;20457;-79
2023/08/06 03:55:06;;;;;;;3.33;2.87;;;;;;;14.12;100.00;154987.19;4988701;28;20477;-79
2023/08/06 03:57:33;;;;;;;4.87;2.80;;;;;;;14.15;100.00;154995.00;4991520;28;20460;-79
2023/08/06 04:00:00;;;;;;;3.00;2.63;;;;;;;14.15;100.00;154995.00;5007607;28;20457;-79
2023/08/06 04:02:29;;;;;;;2.73;2.40;;;;;;;14.16;100.00;154997.59;5007349;28;20440;-79
2023/08/06 04:04:56;;;;;;;3.10;2.50;;;;;;;14.19;100.00;155004.09;5021816;28;20492;-79
2023/08/06 04:07:22;;;;;;;3.90;2.60;;;;;;;14.16;100.00;154996.31;5024616;28;20828;-79
2023/08/06 04:09:58;;;;;;;3.33;2.30;;;;;;;14.18;100.00;155001.50;4991684;28;20456;-79
2023/08/06 04:12:26;;;;;;;2.97;2.40;;;;;;;14.17;100.00;155000.19;5022067;28;20429;-79
2023/08/06 04:14:54;;;;;;;3.23;2.50;;;;;;;14.18;100.00;155002.78;5021125;28;20453;-79
2023/08/06 04:17:21;;;;;;;3.70;2.37;;;;;;;14.13;100.00;154989.81;4990870;28;20526;-79
2023/08/06 04:19:48;;;;;;;3.13;2.50;;;;;;;14.17;100.00;154998.88;5007298;28;20469;-79
2023/08/06 04:22:15;;;;;;;2.63;2.20;;;;;;;14.19;100.00;155005.34;5009541;28;20820;-79
2023/08/06 04:24:42;;;;;;;3.00;2.00;;;;;;;14.20;100.00;155006.66;4991740;28;20484;-79
2023/08/06 04:27:10;;;;;;;3.20;2.83;;;;;;;14.22;100.00;155011.84;4991357;28;20440;-79
2023/08/06 04:29:37;;;;;;;2.83;1.97;;;;;;;14.21;100.00;155009.28;5023466;28;20459;-79
2023/08/06 04:32:06;;;;;;;4.07;2.23;;;;;;;14.18;100.00;155002.78;4987911;28;20476;-79
2023/08/06 04:34:33;;;;;;;3.23;2.10;;;;;;;14.19;100.00;155005.34;5003561;28;20472;-79
2023/08/06 04:37:00;;;;;;;2.50;1.97;;;;;;;14.18;100.00;155002.78;4987506;28;20460;-79
2023/08/06 04:39:27;;;;;;;2.50;1.77;;;;;;;14.16;100.00;154997.59;5009147;28;20512;-79
2023/08/06 04:41:56;;;;;;;2.53;1.80;;;;;;;14.21;100.00;155010.59;4991544;28;20973;-79
2023/08/06 04:44:24;;;;;;;2.90;1.90;;;;;;;14.22;100.00;155013.16;4989421;28;20464;-79
2023/08/06 04:46:51;;;;;;;3.40;2.40;;;;;;;14.21;100.00;155010.59;5022025;28;20807;-79
2023/08/06 04:49:18;;;;;;;2.67;1.60;;;;;;;14.23;100.00;155015.78;5024043;28;20459;-79
2023/08/06 04:51:44;;;;;;;2.70;1.87;;;;;;;14.26;100.00;155023.56;5023676;28;20449;-79
2023/08/06 04:54:11;;;;;;;3.20;2.27;;;;;;;14.27;100.00;155024.88;5008296;28;20460;-79
2023/08/06 04:56:37;;;;;;;3.03;2.20;;;;;;;14.29;100.00;155030.06;5006123;28;20456;-79
2023/08/06 04:59:04;;;;;;;2.90;1.80;;;;;;;14.28;100.00;155028.75;5009011;28;20440;-79
2023/08/06 05:01:32;;;;;;;2.10;1.50;;;;;;;14.29;100.00;155031.38;5005173;28;20470;-79
2023/08/06 05:03:59;;;;;;;2.80;2.23;;;;;;;14.32;100.00;155037.91;5000124;28;20478;-79
2023/08/06 05:06:25;;;;;;;3.27;1.40;;;;;;;14.31;100.00;155036.59;5016340;28;20469;-79
2023/08/06 05:08:52;;;;;;;3.07;1.80;;;;;;;14.33;100.00;155041.78;5014078;28;20441;-79
2023/08/06 05:11:18;;;;;;;3.40;2.10;;;;;;;14.35;100.00;155046.97;5013157;28;20460;-79
2023/08/06 05:13:45;;;;;;;2.00;1.43;;;;;;;14.39;100.00;155057.38;5015001;28;20813;-79
2023/08/06 05:16:11;;;;;;;2.07;1.70;;;;;;;14.42;100.00;155065.19;4999246;28;20883;-79
2023/08/06 05:18:40;;;;;;;3.20;1.97;;;;;;;14.44;100.00;155070.38;5011428;28;20445;-79
2023/08/06 05:21:07;;;;;;;3.00;1.77;;;;;;;14.44;100.00;155069.06;5015040;28;20988;-79
2023/08/06 05:23:33;;;;;;;2.00;1.47;;;;;;;14.44;100.00;155069.06;5013925;28;20477;-79
2023/08/06 05:26:00;;;;;;;2.70;1.63;;;;;;;14.43;100.00;155067.75;4999686;28;20445;-79
2023/08/06 05:28:27;;;;;;;3.90;2.10;;;;;;;14.44;100.00;155070.38;5013843;28;20462;-79
2023/08/06 05:30:53;;;;;;;2.70;1.50;;;;;;;14.49;100.00;155083.34;5017921;28;20450;-79
2023/08/06 05:33:20;;;;;;;2.30;1.40;;;;;;;14.69;100.00;155132.72;4998873;28;20862;-79
2023/08/06 05:35:50;;;;;;;2.73;1.57;;;;;;;14.95;100.00;155201.56;4993450;28;20457;-80
2023/08/06 05:38:17;;;;;;;2.60;1.43;;;;;;;15.22;100.00;155270.44;5012287;28;20877;-79
2023/08/06 05:40:43;;;;;;;3.10;1.23;;;;;;;15.38;100.00;155311.97;4998789;28;20465;-79
2023/08/06 05:43:10;;;;;;;1.87;1.10;;;;;;;15.41;100.00;155318.53;5014038;28;20515;-79
2023/08/06 05:45:37;;;;;;;4.73;1.30;;;;;;;15.43;100.00;155325.00;5012790;28;20561;-79
2023/08/06 05:48:04;;;;;;;1.70;1.00;;;;;;;15.45;100.00;155328.91;5014044;28;20464;-79
2023/08/06 05:50:30;;;;;;;3.03;1.10;;;;;;;15.40;100.00;155317.22;5013500;28;20851;-79
2023/08/06 05:52:58;;;;;;;1.50;1.13;;;;;;;15.36;100.00;155305.47;5014042;28;20914;-79
2023/08/06 05:55:27;;;;;;;1.10;0.83;;;;;;;15.36;100.00;155305.47;5014276;28;20453;-79
2023/08/06 05:57:54;;;;;;;1.40;0.90;;;;;;;15.33;100.00;155298.97;5013806;28;20453;-79
2023/08/06 06:00:22;;;;;;;1.80;0.93;;;;;;;15.29;100.00;155288.63;5014277;28;20532;-79
2023/08/06 06:02:48;;;;;;;2.57;1.10;;;;;;;15.27;100.00;155283.44;5015322;28;20456;-79
2023/08/06 06:05:15;;;;;;;2.00;1.20;;;;;;;15.22;100.00;155270.44;4999161;28;20481;-79
2023/08/06 06:07:41;;;;;;;1.63;1.07;;;;;;;15.17;100.00;155257.41;5013502;28;20456;-79
2023/08/06 06:10:10;;;;;;;2.07;1.00;;;;;;;15.12;100.00;155244.41;5013020;28;20453;-79
2023/08/06 06:12:39;;;;;;;1.73;1.03;;;;;;;15.12;100.00;155244.41;5001221;28;20448;-79
2023/08/06 06:15:06;;;;;;;1.20;0.70;;;;;;;15.11;100.00;155241.84;5019243;28;21047;-80
2023/08/06 06:17:33;;;;;;;1.43;0.90;;;;;;;15.08;100.00;155235.34;5000410;28;20544;-80
2023/08/06 06:19:59;;;;;;;1.60;0.93;;;;;;;15.08;100.00;155235.34;5012591;28;20464;-79
2023/08/06 06:22:26;;;;;;;1.80;0.83;;;;;;;15.08;100.00;155235.34;4997821;28;20460;-79
2023/08/06 06:24:52;;;;;;;2.97;1.20;;;;;;;15.10;100.00;155239.22;4997747;28;20482;-79
2023/08/06 06:27:20;;;;;;;1.90;1.03;;;;;;;15.13;100.00;155247.03;5013320;28;20467;-79
2023/08/06 06:29:47;;;;;;;2.00;0.80;;;;;;;15.13;100.00;155247.03;4985399;28;20476;-79
2023/08/06 06:32:13;;;;;;;2.17;0.90;;;;;;;15.08;100.00;155234.03;5016769;28;20480;-79
2023/08/06 06:34:40;;;;;;;1.77;1.07;;;;;;;15.07;100.00;155232.72;5013230;28;21076;-79
2023/08/06 06:37:07;;;;;;;1.40;0.90;;;;;;;15.06;100.00;155228.84;4997653;28;20540;-79
2023/08/06 06:39:34;;;;;;;1.30;0.77;;;;;;;15.07;100.00;155231.41;5013077;28;20465;-79
2023/08/06 06:42:00;;;;;;;1.60;0.70;;;;;;;15.04;100.00;155223.63;5012063;28;21012;-79
2023/08/06 06:44:37;;;;;;;1.37;0.83;;;;;;;15.04;100.00;155223.63;5013402;28;20482;-79
2023/08/06 06:47:04;;;;;;;2.27;0.90;;;;;;;15.05;100.00;155227.53;5013008;28;20464;-79
2023/08/06 06:49:30;;;;;;;2.30;0.90;;;;;;;15.10;100.00;155240.53;5014597;28;20464;-79
2023/08/06 06:51:57;;;;;;;2.70;0.67;;;;;;;15.12;100.00;155245.72;4998402;28;20805;-79
2023/08/06 06:54:24;;;;;;;3.00;1.00;;;;;;;15.16;100.00;155254.81;4998095;28;20450;-79
2023/08/06 06:56:50;;;;;;;1.33;0.80;;;;;;;15.19;100.00;155263.94;5015341;28;20463;-80
2023/08/06 06:59:17;;;;;;;1.07;0.67;;;;;;;15.20;100.00;155265.19;5012834;28;20465;-79
2023/08/06 07:01:45;;;;;;;2.63;0.80;;;;;;;15.21;100.00;155267.81;4999342;28;20452;-79
2023/08/06 07:04:11;;;;;;;1.43;0.80;;;;;;;15.20;100.00;155265.19;5016206;28;20480;-79
2023/08/06 07:06:38;;;;;;;1.27;0.70;;;;;;;15.14;100.00;155249.66;5016091;28;20556;-79
2023/08/06 07:09:05;;;;;;;2.30;1.40;;;;;;;15.18;100.00;155261.31;5013746;28;20460;-79
2023/08/06 07:11:32;;;;;;;1.40;0.90;;;;;;;15.15;100.00;155253.53;5000628;28;20507;-79
2023/08/06 07:13:59;;;;;;;1.27;0.60;;;;;;;15.15;100.00;155253.53;5016814;28;20455;-79
2023/08/06 07:16:25;;;;;;;1.30;0.90;;;;;;;15.19;100.00;155262.63;4999930;28;20547;-79
2023/08/06 07:18:54;;;;;;;2.03;0.80;;;;;;;15.21;100.00;155269.13;5013518;28;20458;-79
2023/08/06 07:21:21;;;;;;;1.43;0.73;;;;;;;15.17;100.00;155258.72;5002110;28;20456;-79
2023/08/06 07:23:49;;;;;;;1.53;0.83;;;;;;;15.12;100.00;155244.41;5033161;28;20472;-78
2023/08/06 07:26:15;;;;;;;1.60;0.60;;;;;;;15.13;100.00;155247.03;5017287;28;20464;-79
2023/08/06 07:28:42;;;;;;;1.53;0.53;;;;;;;15.10;100.00;155239.22;5015317;28;20550;-79
2023/08/06 07:31:08;;;;;;;2.20;0.70;;;;;;;15.10;100.00;155239.22;5019979;28;20463;-79
2023/08/06 07:33:35;;;;;;;0.90;0.50;;;;;;;15.08;100.00;155234.03;5001092;28;20492;-79
2023/08/06 07:36:10;;;;;;;0.90;0.50;;;;;;;15.08;100.00;155234.03;5000252;28;20453;-79
2023/08/06 07:38:37;;;;;;;1.20;0.70;;;;;;;15.08;100.00;155234.03;5014470;28;20448;-79
2023/08/06 07:41:03;;;;;;;1.10;0.63;;;;;;;15.05;100.00;155226.22;5015018;28;20995;-79
2023/08/06 07:43:30;;;;;;;1.43;0.50;;;;;;;15.02;100.00;155218.44;5016412;28;20882;-79
2023/08/06 07:45:58;;;;;;;0.90;0.57;;;;;;;15.00;100.00;155213.25;5014410;28;20459;-79
2023/08/06 07:48:25;;;;;;;0.90;0.40;;;;;;;15.04;100.00;155223.63;5000705;28;20453;-79
2023/08/06 07:50:53;;;;;;;1.50;0.47;;;;;;;15.08;100.00;155235.34;5017258;28;20473;-79
2023/08/06 07:53:21;;;;;;;0.80;0.30;;;;;;;15.13;100.00;155247.03;5015843;28;20455;-79
2023/08/06 07:55:51;;;;;;;0.97;0.37;;;;;;;15.15;100.00;155252.22;5017208;28;20463;-80
2023/08/06 07:58:18;;;;;;;0.80;0.40;;;;;;;15.24;100.00;155276.94;5016491;28;20457;-79
2023/08/06 08:00:45;;;;;;;1.20;0.50;;;;;;;15.24;100.00;155275.63;5001168;28;20916;-79
2023/08/06 08:03:12;;;;;;;1.37;0.33;;;;;;;15.27;100.00;155284.69;5016118;28;20460;-79
2023/08/06 08:05:38;;;;;;;0.70;0.20;;;;;;;15.27;100.00;155283.44;5000597;28;20489;-79
2023/08/06 08:08:05;;;;;;;5.40;0.43;;;;;;;15.29;100.00;155288.63;4999893;28;20461;-79
2023/08/06 08:10:33;;;;;;;1.30;0.40;;;;;;;15.32;100.00;155295.09;5002562;28;20472;-79
2023/08/06 08:12:59;;;;;;;1.57;0.30;;;;;;;15.27;100.00;155284.69;4990450;28;20793;-79
2023/08/06 08:15:26;;;;;;;0.90;0.40;;;;;;;15.30;100.00;155289.91;5021455;28;21002;-79
2023/08/06 08:17:53;;;;;;;0.70;0.30;;;;;;;15.34;100.00;155301.59;4998994;28;20543;-79
2023/08/06 08:20:20;;;;;;;1.00;0.30;;;;;;;15.37;100.00;155309.41;5014389;28;20517;-79
2023/08/06 08:22:46;;;;;;;0.80;0.20;;;;;;;15.45;100.00;155330.19;5015652;28;20453;-79
2023/08/06 08:25:13;;;;;;;1.10;0.30;;;;;;;15.53;100.00;155351.06;5014922;28;20479;-79
2023/08/06 08:27:41;;;;;;;0.80;0.30;;;;;;;15.63;100.00;155375.72;5015505;28;20465;-79
2023/08/06 08:30:08;;;;;;;0.90;0.40;;;;;;;15.67;100.00;155387.41;5000684;28;21021;-79
2023/08/06 08:32:35;;;;;;;1.20;0.30;;;;;;;15.70;100.00;155395.22;5002890;28;20738;-78
2023/08/06 08:35:02;;;;;;;0.70;0.30;;;;;;;15.77;100.00;155412.13;4998543;28;20972;-78
2023/08/06 08:37:28;;;;;;;0.70;0.20;;;;;;;15.84;100.00;155430.31;5013196;28;20460;-77
2023/08/06 08:39:55;;;;;;;0.70;0.20;;;;;;;15.89;100.00;155442.00;4997851;28;20524;-78
2023/08/06 08:42:22;;;;;;;1.43;0.30;;;;;;;15.89;100.00;155442.00;5008216;28;20475;-78
2023/08/06 08:44:50;;;;;;;0.70;0.27;;;;;;;15.86;100.00;155434.25;4995537;28;20567;-78
2023/08/06 08:47:17;;;;;;;0.70;0.23;;;;;;;15.89;100.00;155443.31;5018524;28;20487;-78
2023/08/06 08:49:46;;;;;;;0.70;0.20;;;;;;;15.87;100.00;155438.13;4998399;28;20931;-78
2023/08/06 08:52:16;;;;;;;0.70;0.20;;;;;;;15.93;100.00;155452.44;5007692;28;21135;-78
2023/08/06 08:54:43;;;;;;;0.70;0.20;;;;;;;15.92;100.00;155449.81;5030230;28;20454;-78
2023/08/06 08:57:09;;;;;;;0.90;0.20;;;;;;;15.93;100.00;155453.75;5014357;28;20968;-78
2023/08/06 08:59:36;;;;;;;0.87;0.30;;;;;;;15.93;100.00;155452.44;4997253;28;20460;-78
2023/08/06 09:02:05;;;;;;;0.80;0.30;;;;;;;15.92;100.00;155449.81;5015336;28;20446;-78
2023/08/06 09:04:32;;;;;;;0.70;0.20;;;;;;;15.94;100.00;155456.31;5013534;28;20824;-78
2023/08/06 09:07:00;;;;;;;0.70;0.20;;;;;;;15.98;100.00;155465.44;5013954;28;20509;-77
2023/08/06 09:09:29;;;;;;;0.70;0.20;;;;;;;16.06;100.00;155486.25;4998662;28;20458;-78
2023/08/06 09:11:56;;;;;;;0.70;0.27;;;;;;;16.07;100.00;155490.13;4999526;28;20452;-78
2023/08/06 09:14:23;;;;;;;0.80;0.37;;;;;;;16.08;100.00;155491.44;4997649;28;20516;-78
2023/08/06 09:16:49;;;;;;;1.40;0.47;;;;;;;16.17;100.00;155514.88;4999393;28;20485;-78
2023/08/06 09:19:17;;;;;;;0.80;0.30;;;;;;;16.19;100.00;155521.38;4995323;28;20458;-78
2023/08/06 09:21:48;;;;;;;0.80;0.20;;;;;;;16.24;100.00;155534.34;5014038;28;20476;-78
2023/08/06 09:24:15;;;;;;;0.70;0.20;;;;;;;16.19;100.00;155520.03;5011337;28;20818;-78
2023/08/06 09:26:43;;;;;;;0.80;0.20;;;;;;;16.27;100.00;155540.84;4997756;28;21066;-78
2023/08/06 09:29:11;;;;;;;0.70;0.23;;;;;;;16.36;100.00;155564.28;5006807;28;20445;-78
2023/08/06 09:31:41;;;;;;;0.90;0.30;;;;;;;16.32;100.00;155553.84;5000294;28;20485;-78
2023/08/06 09:34:11;;;;;;;0.80;0.40;;;;;;;16.32;100.00;155553.84;5012675;28;20455;-78
2023/08/06 09:36:42;;;;;;;0.80;0.27;;;;;;;16.34;100.00;155559.06;5029125;28;20492;-78
2023/08/06 09:39:13;;;;;;;1.07;0.37;;;;;;;16.31;100.00;155551.25;5013192;28;20461;-78
2023/08/06 09:41:40;;;;;;;0.70;0.20;;;;;;;16.28;100.00;155544.75;4998927;28;21221;-78
2023/08/06 09:44:16;;;;;;;1.13;0.20;;;;;;;16.32;100.00;155553.84;4998082;28;21049;-78
2023/08/06 09:46:42;;;;;;;1.10;0.70;;;;;;;16.31;100.00;155551.25;4996037;28;20456;-78
2023/08/06 09:49:10;;;;;;;0.70;0.30;;;;;;;16.32;100.00;155555.16;5012853;28;20453;-78
2023/08/06 09:51:39;;;;;;;1.10;0.33;;;;;;;16.27;100.00;155540.84;5012797;28;20510;-78
2023/08/06 09:54:09;;;;;;;0.80;0.20;;;;;;;16.41;100.00;155577.28;5012339;28;20454;-78
2023/08/06 09:56:38;;;;;;;0.83;0.40;;;;;;;16.41;100.00;155578.56;5013148;28;20444;-78
2023/08/06 09:59:08;;;;;;;0.80;0.30;;;;;;;16.46;100.00;155590.28;4997428;28;20829;-78
2023/08/06 10:01:36;;;;;;;0.80;0.30;;;;;;;16.50;100.00;155600.66;4997795;28;20465;-78
2023/08/06 10:04:04;;;;;;;0.80;0.30;;;;;;;16.58;100.00;155621.53;5010335;28;20520;-78
2023/08/06 10:06:32;;;;;;;0.87;0.20;;;;;;;16.56;100.00;155616.34;5014579;28;20473;-78
2023/08/06 10:08:59;;;;;;;1.03;0.43;;;;;;;16.55;100.00;155613.72;4998793;28;20453;-77
2023/08/06 10:11:28;;;;;;;0.93;0.40;;;;;;;16.55;100.00;155613.72;4999381;28;20448;-77
2023/08/06 10:13:59;;;;;;;0.90;0.30;;;;;;;16.50;100.00;155600.66;5014943;28;20462;-78
2023/08/06 10:16:26;;;;;;;1.10;0.40;;;;;;;16.48;100.00;155595.47;4998068;28;20452;-78
2023/08/06 10:18:53;;;;;;;1.13;0.27;;;;;;;16.42;100.00;155579.88;5012391;28;20449;-77
2023/08/06 10:21:21;;;;;;;0.80;0.30;;;;;;;16.40;100.00;155575.97;5012689;28;20469;-77
2023/08/06 10:23:55;;;;;;;0.90;0.27;;;;;;;16.38;100.00;155570.78;4995316;28;20461;-77
2023/08/06 10:26:21;;;;;;;0.90;0.30;;;;;;;16.30;100.00;155548.66;4993053;28;20481;-77
2023/08/06 10:28:49;;;;;;;0.77;0.30;;;;;;;16.24;100.00;155533.06;4993618;28;20465;-77
2023/08/06 10:31:16;;;;;;;0.80;0.27;;;;;;;16.19;100.00;155520.03;4995035;28;20466;-78
2023/08/06 10:33:44;;;;;;;0.80;0.40;;;;;;;16.22;100.00;155527.84;4996408;28;20529;-77
2023/08/06 10:36:11;;;;;;;0.90;0.30;;;;;;;16.27;100.00;155540.84;4996721;28;20457;-77
2023/08/06 10:38:45;;;;;;;0.80;0.20;;;;;;;16.33;100.00;155556.47;5013783;28;20859;-77
2023/08/06 10:41:16;;;;;;;0.77;0.20;;;;;;;16.33;100.00;155556.47;5014600;28;20460;-77
2023/08/06 10:43:44;;;;;;;0.90;0.40;;;;;;;16.34;100.00;155560.34;4998730;28;20485;-77
2023/08/06 10:46:24;;;;;;;0.90;0.30;;;;;;;16.27;100.00;155540.84;4992650;28;20486;-77
2023/08/06 10:48:51;;;;;;;0.87;0.40;;;;;;;16.31;100.00;155551.25;5001448;28;20445;-77
2023/08/06 10:51:17;;;;;;;0.80;0.40;;;;;;;16.30;100.00;155548.66;5015512;28;20479;-77
2023/08/06 10:53:45;;;;;;;0.80;0.20;;;;;;;16.39;100.00;155573.34;5000709;28;20492;-77
2023/08/06 10:56:15;;;;;;;0.70;0.20;;;;;;;16.40;100.00;155574.66;5019277;28;20544;-77
2023/08/06 10:58:42;;;;;;;0.90;0.37;;;;;;;16.46;100.00;155590.28;5014777;28;20446;-79
2023/08/06 11:01:09;;;;;;;0.80;0.20;;;;;;;16.50;100.00;155599.38;5000362;28;20456;-78
2023/08/06 11:03:38;;;;;;;0.80;0.30;;;;;;;16.49;100.00;155598.09;5002080;28;20452;-78
2023/08/06 11:06:05;;;;;;;1.20;0.50;;;;;;;16.47;100.00;155592.88;5032144;28;20849;-78
2023/08/06 11:08:35;;;;;;;0.80;0.30;;;;;;;16.49;100.00;155596.78;4998635;28;20478;-77
2023/08/06 11:11:10;;;;;;;0.80;0.30;;;;;;;16.47;100.00;155591.59;5000412;28;20452;-79
2023/08/06 11:13:37;;;;;;;0.80;0.30;;;;;;;16.45;100.00;155587.66;5000606;28;21114;-77
2023/08/06 11:16:04;;;;;;;0.80;0.20;;;;;;;16.40;100.00;155575.97;5016202;28;20452;-77
2023/08/06 11:18:31;;;;;;;0.77;0.30;;;;;;;16.41;100.00;155577.28;5013629;28;20944;-77